Time;durP1;ratioP1;P1;durP2;ratioP2;P2;SDS_P1;SDS_P2;PMS_P1;PMS_P2;Temp;Humidity;BMP_temperature;BMP_pressure;BME280_temperature;BME280_humidity;BME280_pressure;Samples;Min_cycle;Max_cycle;Signal;HPM_P1;HPM_P2
2022/05/02 00:04:11;;;;;;;2.85;1.23;;;8.90;99.90;;;;;;20614230;28;20177;-82
2022/05/02 00:14:12;;;;;;;3.35;2.00;;;8.80;99.90;;;;;;20595164;28;20094;-82
2022/05/02 00:24:13;;;;;;;4.95;1.92;;;8.70;99.90;;;;;;20614381;28;20042;-82
2022/05/02 00:34:14;;;;;;;4.28;1.60;;;8.60;99.90;;;;;;20579791;28;20038;-82
2022/05/02 00:44:15;;;;;;;3.90;2.00;;;8.60;99.90;;;;;;20595513;28;20052;-82
2022/05/02 00:54:17;;;;;;;3.25;1.40;;;8.40;99.90;;;;;;20609855;28;20138;-82
2022/05/02 01:04:18;;;;;;;3.13;1.58;;;8.40;99.90;;;;;;20613171;28;20031;-83
2022/05/02 01:14:19;;;;;;;3.80;1.42;;;8.40;99.90;;;;;;20635297;28;20037;-82
2022/05/02 01:24:21;;;;;;;2.25;1.05;;;8.30;99.90;;;;;;20596052;28;20109;-83
2022/05/02 01:34:22;;;;;;;3.85;2.08;;;8.30;99.90;;;;;;20630465;28;20038;-83
2022/05/02 01:44:24;;;;;;;4.22;1.73;;;8.20;99.90;;;;;;20617808;28;20030;-82
2022/05/02 01:54:26;;;;;;;3.58;1.40;;;8.10;99.90;;;;;;20615712;28;20438;-82
2022/05/02 02:14:47;;;;;;;5.40;1.67;;;7.80;99.90;;;;;;20626321;28;20048;-83
2022/05/02 02:24:49;;;;;;;3.38;1.73;;;7.70;99.90;;;;;;20629461;28;20406;-82
2022/05/02 02:34:51;;;;;;;5.50;2.40;;;7.50;99.90;;;;;;20629349;28;20046;-84
2022/05/02 02:44:53;;;;;;;4.07;1.60;;;7.40;99.90;;;;;;20633928;28;20046;-83
2022/05/02 02:54:55;;;;;;;5.20;1.73;;;7.30;99.90;;;;;;20614014;28;20030;-83
2022/05/02 03:15:18;;;;;;;3.75;1.52;;;7.20;99.90;;;;;;20633163;28;20113;-83
2022/05/02 03:25:19;;;;;;;3.53;1.73;;;7.20;99.90;;;;;;20622382;28;20042;-83
2022/05/02 03:35:21;;;;;;;4.03;1.60;;;7.00;99.90;;;;;;20627861;28;20049;-83
2022/05/02 03:45:22;;;;;;;3.63;1.83;;;6.90;99.90;;;;;;20624134;28;20073;-83
2022/05/02 03:55:23;;;;;;;4.78;2.03;;;6.90;99.90;;;;;;20614385;28;20037;-82
2022/05/02 04:05:24;;;;;;;4.65;2.25;;;6.80;99.90;;;;;;20639332;28;20137;-82
2022/05/02 04:15:25;;;;;;;4.25;1.67;;;6.80;99.90;;;;;;20616259;28;20035;-82
2022/05/02 04:25:26;;;;;;;5.45;2.72;;;6.80;99.90;;;;;;20598829;28;20088;-83
2022/05/02 04:35:28;;;;;;;5.43;2.20;;;6.70;99.90;;;;;;20602677;28;20046;-82
2022/05/02 04:45:29;;;;;;;5.82;2.97;;;6.60;99.90;;;;;;20599432;28;20363;-82
2022/05/02 04:55:30;;;;;;;4.28;1.70;;;6.70;99.90;;;;;;20620175;28;20038;-82
2022/05/02 05:05:31;;;;;;;5.55;2.08;;;6.80;99.90;;;;;;20607956;28;20117;-82
2022/05/02 05:26:46;;;;;;;4.13;2.10;;;7.00;99.90;;;;;;20634211;28;21125;-82
2022/05/02 05:37:01;;;;;;;4.85;2.22;;;7.30;99.90;;;;;;20643396;28;20653;-82
2022/05/02 05:47:30;;;;;;;5.22;2.50;;;7.60;99.90;;;;;;20636156;28;20164;-82
2022/05/02 05:57:54;;;;;;;4.97;1.92;;;7.90;99.90;;;;;;20643866;28;20046;-81
2022/05/02 06:07:56;;;;;;;9.55;3.10;;;8.30;99.90;;;;;;20640482;28;20495;-82
2022/05/02 06:28:22;;;;;;;7.18;3.28;;;9.20;99.90;;;;;;20675310;28;20069;-81
2022/05/02 06:38:23;;;;;;;7.47;2.45;;;9.60;99.90;;;;;;20656336;28;20178;-85
2022/05/02 06:48:35;;;;;;;5.82;2.70;;;9.90;99.90;;;;;;20667494;28;20042;-82
2022/05/02 06:58:39;;;;;;;6.47;3.10;;;10.20;99.90;;;;;;20650152;28;20137;-82
2022/05/02 07:08:53;;;;;;;6.60;2.38;;;10.50;99.90;;;;;;20667865;28;20049;-84
2022/05/02 07:19:25;;;;;;;5.57;2.38;;;10.70;99.90;;;;;;20648263;28;20034;-82
2022/05/02 07:29:29;;;;;;;7.63;2.95;;;10.90;99.90;;;;;;20647565;28;20038;-83
2022/05/02 07:39:33;;;;;;;7.15;3.10;;;11.30;99.90;;;;;;20662390;28;20034;-83
2022/05/02 07:49:35;;;;;;;4.88;2.30;;;11.60;99.90;;;;;;20647004;28;20052;-82
2022/05/02 07:59:40;;;;;;;7.03;2.78;;;11.70;99.90;;;;;;20627290;28;20385;-83
2022/05/02 08:10:07;;;;;;;7.50;3.47;;;12.00;99.90;;;;;;20660013;28;20048;-83
2022/05/02 08:20:08;;;;;;;5.43;2.33;;;12.40;99.90;;;;;;20626125;28;20121;-83
2022/05/02 08:30:24;;;;;;;4.03;1.83;;;12.70;99.90;;;;;;20642596;28;20050;-82
2022/05/02 08:40:25;;;;;;;7.20;2.40;;;13.00;99.90;;;;;;20624396;28;20045;-83
2022/05/02 08:51:03;;;;;;;3.85;1.83;;;13.30;99.90;;;;;;20640763;28;20136;-82
2022/05/02 09:01:27;;;;;;;4.83;2.47;;;13.60;99.90;;;;;;20640381;28;20526;-83
2022/05/02 09:11:59;;;;;;;2.33;1.40;;;14.30;99.90;;;;;;20655246;28;20168;-83
2022/05/02 09:22:18;;;;;;;4.75;2.20;;;14.30;99.90;;;;;;20656891;28;20929;-83
2022/05/02 09:33:03;;;;;;;4.88;1.85;;;14.50;99.90;;;;;;20624733;28;20371;-84
2022/05/02 09:43:16;;;;;;;2.72;1.23;;;14.90;99.90;;;;;;20443708;28;20739;-83
2022/05/02 09:53:29;;;;;;;4.57;1.55;;;15.30;99.90;;;;;;20639178;28;20307;-83
2022/05/02 10:03:35;;;;;;;3.80;1.70;;;15.60;99.90;;;;;;20641102;28;20109;-83
2022/05/02 10:14:33;;;;;;;4.53;1.88;;;15.60;99.90;;;;;;20653863;28;20056;-84
2022/05/02 10:24:52;;;;;;;3.28;1.42;;;15.90;99.90;;;;;;20566573;28;20134;-83
2022/05/02 10:34:55;;;;;;;4.40;1.38;;;16.40;99.90;;;;;;20655832;28;20495;-83
2022/05/02 10:45:04;;;;;;;2.80;1.55;;;16.70;99.90;;;;;;20630456;28;20453;-83
2022/05/02 10:55:18;;;;;;;3.70;1.58;;;17.00;99.90;;;;;;20637623;28;20054;-83
2022/05/02 11:05:35;;;;;;;3.55;1.67;;;16.80;99.90;;;;;;20653262;28;20572;-83
2022/05/02 11:15:40;;;;;;;2.67;1.30;;;17.20;99.90;;;;;;20666591;28;20102;-83
2022/05/02 11:25:57;;;;;;;3.55;1.80;;;17.50;98.80;;;;;;20668046;28;20109;-83
2022/05/02 11:36:00;;;;;;;4.70;1.63;;;17.60;99.40;;;;;;20648336;28;20141;-82
2022/05/02 11:46:24;;;;;;;2.60;1.08;;;17.60;99.40;;;;;;20633824;28;20090;-84
2022/05/02 11:56:46;;;;;;;6.13;1.73;;;17.70;98.70;;;;;;20684734;28;20091;-84
2022/05/02 12:07:02;;;;;;;4.53;1.58;;;17.80;99.40;;;;;;20665072;28;20378;-84
2022/05/02 12:17:10;;;;;;;2.67;1.10;;;18.10;98.80;;;;;;20677044;28;20030;-84
2022/05/02 12:27:16;;;;;;;3.13;1.13;;;17.90;98.70;;;;;;20675066;28;20065;-84
2022/05/02 12:37:44;;;;;;;2.42;1.20;;;18.00;97.40;;;;;;20685114;28;20387;-83
2022/05/02 12:48:14;;;;;;;2.77;1.27;;;18.40;95.80;;;;;;20686526;28;20038;-84
2022/05/02 13:08:41;;;;;;;2.05;0.80;;;18.80;95.30;;;;;;20685889;28;20034;-84
2022/05/02 13:18:47;;;;;;;1.35;0.60;;;18.80;93.90;;;;;;20654765;28;20031;-84
2022/05/02 13:29:16;;;;;;;0.50;0.30;;;18.80;93.50;;;;;;20663195;28;20085;-84
2022/05/02 13:39:23;;;;;;;1.40;0.60;;;19.00;91.50;;;;;;20678095;28;20050;-84
2022/05/02 13:49:30;;;;;;;0.73;0.30;;;19.40;88.60;;;;;;20687603;28;20061;-84
2022/05/02 14:10:24;;;;;;;0.75;0.57;;;18.40;88.80;;;;;;20684175;28;20446;-84
2022/05/02 14:20:33;;;;;;;1.40;0.65;;;17.90;81.40;;;;;;20705484;28;20114;-83
2022/05/02 14:30:38;;;;;;;1.20;0.30;;;17.60;82.50;;;;;;20648571;28;20050;-84
2022/05/02 14:40:42;;;;;;;0.40;0.20;;;17.60;83.90;;;;;;20677037;28;20398;-84
2022/05/02 14:50:47;;;;;;;1.20;0.50;;;17.60;87.50;;;;;;20677547;28;20053;-84
2022/05/02 15:01:04;;;;;;;0.80;0.28;;;17.50;91.00;;;;;;20654572;28;20041;-84
2022/05/02 15:11:24;;;;;;;0.60;0.30;;;17.20;90.90;;;;;;20678405;28;20030;-84
2022/05/02 15:21:26;;;;;;;1.02;0.28;;;16.90;91.70;;;;;;20670350;28;22372;-83
2022/05/02 15:41:46;;;;;;;0.75;0.28;;;17.00;90.10;;;;;;20684609;28;20042;-84
2022/05/02 15:51:52;;;;;;;0.82;0.45;;;16.70;91.40;;;;;;20673316;28;20043;-84
2022/05/02 16:02:02;;;;;;;1.30;0.25;;;16.80;90.80;;;;;;20659659;28;20031;-83
2022/05/02 16:12:09;;;;;;;1.27;0.40;;;16.50;90.10;;;;;;20677803;28;20042;-84
2022/05/02 16:22:15;;;;;;;0.83;0.23;;;16.40;89.40;;;;;;20661009;28;20038;-83
2022/05/02 16:32:16;;;;;;;0.75;0.40;;;16.30;89.50;;;;;;20655287;28;20614;-83
2022/05/02 16:42:18;;;;;;;0.70;0.30;;;16.00;90.50;;;;;;20577869;28;20035;-83
2022/05/02 16:52:21;;;;;;;1.05;0.50;;;15.90;91.50;;;;;;20582290;28;20129;-84
2022/05/02 17:02:22;;;;;;;0.88;0.30;;;15.70;91.00;;;;;;20598460;28;20034;-83
2022/05/02 17:12:26;;;;;;;0.40;0.20;;;15.60;91.60;;;;;;20611295;28;20482;-83
2022/05/02 17:22:30;;;;;;;1.00;0.22;;;15.60;91.70;;;;;;20632008;28;20031;-84
2022/05/02 17:32:49;;;;;;;1.58;0.50;;;15.30;92.90;;;;;;20571441;28;20058;-83
2022/05/02 17:42:53;;;;;;;0.85;0.30;;;15.10;95.50;;;;;;20552663;28;20054;-83
2022/05/02 17:53:04;;;;;;;1.60;0.50;;;15.10;97.90;;;;;;20552552;28;20353;-84
2022/05/02 18:03:12;;;;;;;0.80;0.30;;;15.00;96.80;;;;;;20594913;28;20462;-82
2022/05/02 18:13:16;;;;;;;0.40;0.13;;;14.80;96.50;;;;;;20598194;28;20031;-83
2022/05/02 18:23:18;;;;;;;0.47;0.20;;;14.60;97.90;;;;;;20616333;28;20490;-82
2022/05/02 18:33:28;;;;;;;0.63;0.20;;;14.30;98.80;;;;;;20618239;28;20058;-83
2022/05/02 18:43:40;;;;;;;1.05;0.25;;;14.10;99.30;;;;;;20619838;28;20043;-83
2022/05/02 18:53:45;;;;;;;0.38;0.20;;;14.00;99.90;;;;;;20598768;28;20039;-83
2022/05/02 19:03:49;;;;;;;0.50;0.20;;;13.80;99.90;;;;;;20614771;28;20113;-83
2022/05/02 19:13:52;;;;;;;1.17;0.30;;;13.50;99.90;;;;;;20614280;28;20043;-83
2022/05/02 19:24:09;;;;;;;1.27;0.52;;;13.30;99.90;;;;;;20615739;28;20026;-83
2022/05/02 19:44:49;;;;;;;1.00;0.40;;;13.00;99.90;;;;;;20660143;28;20049;-83
2022/05/02 19:54:53;;;;;;;1.60;0.30;;;12.80;99.90;;;;;;20625455;28;20062;-83
2022/05/02 20:04:55;;;;;;;0.50;0.43;;;12.70;99.90;;;;;;20643715;28;20109;-83
2022/05/02 20:14:57;;;;;;;1.63;0.73;;;12.60;99.90;;;;;;20678044;28;20159;-83
2022/05/02 20:24:59;;;;;;;2.13;0.47;;;12.40;99.90;;;;;;20662973;28;20069;-82
2022/05/02 20:45:27;;;;;;;0.80;0.40;;;12.10;99.90;;;;;;20680196;28;20069;-82
2022/05/02 20:55:28;;;;;;;1.08;0.40;;;12.00;99.90;;;;;;20661783;28;20033;-82
2022/05/02 21:05:29;;;;;;;1.30;0.60;;;11.90;99.90;;;;;;20660478;28;20057;-82
2022/05/02 21:15:52;;;;;;;1.63;0.70;;;11.60;99.90;;;;;;20646646;28;20046;-82
2022/05/02 21:25:58;;;;;;;1.08;0.60;;;11.50;99.90;;;;;;20638176;28;20069;-83
2022/05/02 21:36:01;;;;;;;1.33;0.68;;;11.40;99.90;;;;;;20646463;28;20418;-82
2022/05/02 21:46:03;;;;;;;1.15;0.40;;;11.30;99.90;;;;;;20649915;28;20038;-82
2022/05/02 21:56:07;;;;;;;1.75;0.57;;;11.20;99.90;;;;;;20659110;28;20031;-82
2022/05/02 22:06:08;;;;;;;2.05;0.52;;;11.20;99.90;;;;;;20667053;28;20245;-82
2022/05/02 22:16:09;;;;;;;1.60;0.65;;;10.90;99.90;;;;;;20688640;28;20057;-82
2022/05/02 22:26:10;;;;;;;1.92;0.60;;;10.70;99.90;;;;;;20669729;28;20241;-82
2022/05/02 22:36:12;;;;;;;2.47;0.90;;;10.60;99.90;;;;;;20670032;28;20375;-82
2022/05/02 22:46:14;;;;;;;2.67;1.48;;;10.40;99.90;;;;;;20653666;28;20088;-83
2022/05/02 22:56:15;;;;;;;3.47;1.23;;;10.30;99.90;;;;;;20665969;28;20093;-82
2022/05/02 23:06:52;;;;;;;2.92;1.42;;;10.20;99.90;;;;;;20665995;28;20058;-83
2022/05/02 23:16:59;;;;;;;5.18;1.80;;;10.00;99.90;;;;;;20660763;28;20062;-82
2022/05/02 23:27:00;;;;;;;3.70;1.73;;;9.90;99.90;;;;;;20647276;28;20090;-85
2022/05/02 23:37:12;;;;;;;5.13;1.95;;;9.80;99.90;;;;;;20677097;28;20061;-82
2022/05/02 23:47:49;;;;;;;4.45;1.50;;;9.70;99.90;;;;;;20661571;28;20601;-83
2022/05/02 23:58:11;;;;;;;3.50;1.55;;;9.70;99.90;;;;;;20679793;28;20879;-84
